createdAt,value
2022-12-06T00:00:14.344Z,23.75
2022-12-06T00:02:18.770Z,23.76
2022-12-06T00:04:23.382Z,23.77
2022-12-06T00:06:27.847Z,23.78
2022-12-06T00:08:32.304Z,23.77
2022-12-06T00:10:36.663Z,23.78
2022-12-06T00:12:40.975Z,23.8
2022-12-06T00:14:45.371Z,23.8
2022-12-06T00:16:49.800Z,23.8
2022-12-06T00:18:54.479Z,23.81
2022-12-06T00:20:58.892Z,23.81
2022-12-06T00:23:03.336Z,23.82
2022-12-06T00:25:07.678Z,23.83
2022-12-06T00:27:12.083Z,23.82
2022-12-06T00:29:16.490Z,23.83
2022-12-06T00:31:21.017Z,23.83
2022-12-06T00:33:25.673Z,23.83
2022-12-06T00:35:30.076Z,23.84
2022-12-06T00:37:34.424Z,23.85
2022-12-06T00:39:38.792Z,23.84
2022-12-06T00:41:43.225Z,23.85
2022-12-06T00:43:47.604Z,23.85
2022-12-06T00:45:51.966Z,23.86
2022-12-06T00:47:56.669Z,23.85
2022-12-06T00:50:01.416Z,23.85
2022-12-06T00:52:05.942Z,23.85
2022-12-06T00:54:10.322Z,23.86
2022-12-06T00:56:14.743Z,23.86
2022-12-06T00:58:19.124Z,23.86
2022-12-06T01:00:23.532Z,23.86
2022-12-06T01:02:27.921Z,23.86
2022-12-06T01:04:32.369Z,23.87
2022-12-06T01:06:36.748Z,23.86
2022-12-06T01:08:41.147Z,23.87
2022-12-06T01:10:45.529Z,23.86
2022-12-06T01:12:49.852Z,23.86
2022-12-06T01:14:54.210Z,23.85
2022-12-06T01:16:58.570Z,23.85
2022-12-06T01:19:03.169Z,23.86
2022-12-06T01:21:07.526Z,23.88
2022-12-06T01:23:11.902Z,23.89
2022-12-06T01:25:16.231Z,23.9
2022-12-06T01:27:20.598Z,23.91
2022-12-06T01:29:24.922Z,23.91
2022-12-06T01:31:35.763Z,23.91
2022-12-06T01:33:42.903Z,23.92
2022-12-06T01:35:47.276Z,23.91
2022-12-06T01:37:51.633Z,23.91
2022-12-06T01:39:55.955Z,23.91
2022-12-06T01:42:00.956Z,23.9
2022-12-06T01:44:05.282Z,23.9
2022-12-06T01:46:09.647Z,23.9
2022-12-06T01:48:14.270Z,23.9
2022-12-06T01:50:18.629Z,23.9
2022-12-06T01:52:22.967Z,23.9
2022-12-06T01:54:27.308Z,23.9
2022-12-06T01:56:31.654Z,23.9
2022-12-06T01:58:36.011Z,23.9
2022-12-06T02:00:40.392Z,23.89
2022-12-06T02:02:44.834Z,23.89
2022-12-06T02:04:49.390Z,23.89
2022-12-06T02:06:53.757Z,23.88
2022-12-06T02:08:58.107Z,23.87
2022-12-06T02:11:02.463Z,23.87
2022-12-06T02:13:06.792Z,23.87
2022-12-06T02:15:11.147Z,23.88
2022-12-06T02:17:15.560Z,23.88
2022-12-06T02:19:20.160Z,23.88
2022-12-06T02:21:24.624Z,23.89
2022-12-06T02:23:28.967Z,23.89
2022-12-06T02:25:34.286Z,23.89
2022-12-06T02:27:46.080Z,23.9
2022-12-06T02:29:50.450Z,23.9
2022-12-06T02:31:54.772Z,23.9
2022-12-06T02:33:59.134Z,23.9
2022-12-06T02:36:03.509Z,23.91
2022-12-06T02:38:12.790Z,23.91
2022-12-06T02:40:17.459Z,23.91
2022-12-06T02:42:21.950Z,23.89
2022-12-06T02:44:26.292Z,23.89
2022-12-06T02:46:30.698Z,23.89
2022-12-06T02:48:35.257Z,23.89
2022-12-06T02:50:39.596Z,23.87
2022-12-06T02:52:43.973Z,23.87
2022-12-06T02:54:48.320Z,23.86
2022-12-06T02:56:52.682Z,23.86
2022-12-06T02:58:57.032Z,23.86
2022-12-06T03:01:01.432Z,23.85
2022-12-06T03:03:06.114Z,23.84
2022-12-06T03:05:10.565Z,23.84
2022-12-06T03:07:14.899Z,23.83
2022-12-06T03:09:19.293Z,23.83
2022-12-06T03:11:23.651Z,23.83
2022-12-06T03:13:28.006Z,23.82
2022-12-06T03:15:32.379Z,23.81
2022-12-06T03:17:37.010Z,23.81
2022-12-06T03:19:41.370Z,23.79
2022-12-06T03:21:45.723Z,23.79
2022-12-06T03:23:50.065Z,23.78
2022-12-06T03:25:54.432Z,23.78
2022-12-06T03:27:58.768Z,23.77
2022-12-06T03:30:03.223Z,23.77
2022-12-06T03:32:07.579Z,23.77
2022-12-06T03:34:11.954Z,23.77
2022-12-06T03:36:16.321Z,23.76
2022-12-06T03:38:20.641Z,23.77
2022-12-06T03:40:25.012Z,23.76
2022-12-06T03:42:29.353Z,23.76
2022-12-06T03:44:33.681Z,23.77
2022-12-06T03:46:38.082Z,23.75
2022-12-06T03:48:42.596Z,23.75
2022-12-06T03:50:46.980Z,23.74
2022-12-06T03:52:55.397Z,23.74
2022-12-06T03:54:59.764Z,23.74
2022-12-06T03:57:04.192Z,23.73
2022-12-06T03:59:08.531Z,23.72
2022-12-06T04:01:12.879Z,23.72
2022-12-06T04:03:17.530Z,23.72
2022-12-06T04:05:22.137Z,23.71
2022-12-06T04:07:26.539Z,23.71
2022-12-06T04:09:30.891Z,23.72
2022-12-06T04:11:35.229Z,23.71
2022-12-06T04:13:39.625Z,23.71
2022-12-06T04:15:44.105Z,23.72
2022-12-06T04:17:48.707Z,23.71
2022-12-06T04:19:53.036Z,23.71
2022-12-06T04:21:57.435Z,23.7
2022-12-06T04:24:01.776Z,23.71
2022-12-06T04:26:06.195Z,23.71
2022-12-06T04:28:10.515Z,23.72
2022-12-06T04:30:14.893Z,23.72
2022-12-06T04:32:19.290Z,23.72
2022-12-06T04:34:23.671Z,23.72
2022-12-06T04:36:28.010Z,23.71
2022-12-06T04:38:32.368Z,23.69
2022-12-06T04:40:36.740Z,23.69
2022-12-06T04:42:41.110Z,23.67
2022-12-06T04:44:45.500Z,23.67
2022-12-06T04:46:49.913Z,23.66
2022-12-06T04:48:54.430Z,23.66
2022-12-06T04:50:58.801Z,23.66
2022-12-06T04:53:03.159Z,23.64
2022-12-06T04:55:07.498Z,23.65
2022-12-06T04:57:11.809Z,23.65
2022-12-06T04:59:16.179Z,23.64
2022-12-06T05:01:20.635Z,23.64
2022-12-06T05:03:25.410Z,23.64
2022-12-06T05:05:30.092Z,23.64
2022-12-06T05:07:34.613Z,23.65
2022-12-06T05:09:39.201Z,23.64
2022-12-06T05:11:43.607Z,23.63
2022-12-06T05:13:47.929Z,23.63
2022-12-06T05:15:52.351Z,23.63
2022-12-06T05:17:56.928Z,23.62
2022-12-06T05:20:01.598Z,23.63
2022-12-06T05:22:06.359Z,23.63
2022-12-06T05:24:10.727Z,23.63
2022-12-06T05:26:15.084Z,23.63
2022-12-06T05:28:19.460Z,23.63
2022-12-06T05:30:23.807Z,23.63
2022-12-06T05:32:28.120Z,23.62
2022-12-06T05:34:32.507Z,23.63
2022-12-06T05:36:36.860Z,23.62
2022-12-06T05:38:41.155Z,23.62
2022-12-06T05:40:53.850Z,23.61
2022-12-06T05:42:58.286Z,23.62
2022-12-06T05:45:02.647Z,23.61
2022-12-06T05:47:06.960Z,23.61
2022-12-06T05:49:11.301Z,23.61
2022-12-06T05:51:15.618Z,23.6
2022-12-06T05:53:19.978Z,23.61
2022-12-06T05:55:24.303Z,23.62
2022-12-06T05:57:28.673Z,23.62
2022-12-06T05:59:32.997Z,23.64
2022-12-06T06:01:37.436Z,23.64
2022-12-06T06:03:47.047Z,23.64
2022-12-06T06:05:51.802Z,23.63
2022-12-06T06:07:56.194Z,23.63
2022-12-06T06:10:01.087Z,23.64
2022-12-06T06:12:10.991Z,23.64
2022-12-06T06:14:16.640Z,23.64
2022-12-06T06:16:21.040Z,23.65
2022-12-06T06:18:25.608Z,23.64
2022-12-06T06:20:29.963Z,23.64
2022-12-06T06:22:34.305Z,23.63
2022-12-06T06:24:38.671Z,23.62
2022-12-06T06:26:43.034Z,23.62
2022-12-06T06:28:47.377Z,23.61
2022-12-06T06:30:51.709Z,23.59
2022-12-06T06:32:56.173Z,23.59
2022-12-06T06:35:00.559Z,23.59
2022-12-06T06:37:05.160Z,23.6
2022-12-06T06:39:09.497Z,23.6
2022-12-06T06:41:13.849Z,23.6
2022-12-06T06:43:18.662Z,23.61
2022-12-06T06:45:28.333Z,23.62
2022-12-06T06:47:33.445Z,23.62
2022-12-06T06:49:37.806Z,23.63
2022-12-06T06:51:42.200Z,23.64
2022-12-06T06:53:46.559Z,23.63
2022-12-06T06:55:50.904Z,23.63
2022-12-06T06:57:55.403Z,23.61
2022-12-06T06:59:59.970Z,23.59
2022-12-06T07:02:05.660Z,23.58
2022-12-06T07:04:10.223Z,23.56
2022-12-06T07:06:14.568Z,23.55
2022-12-06T07:08:19.018Z,23.54
2022-12-06T07:10:23.813Z,23.55
2022-12-06T07:12:28.177Z,23.55
2022-12-06T07:14:32.548Z,23.56
2022-12-06T07:16:36.911Z,23.57
2022-12-06T07:18:41.568Z,23.57
2022-12-06T07:20:45.930Z,23.59
2022-12-06T07:22:50.301Z,23.6
2022-12-06T07:24:54.655Z,23.59
2022-12-06T07:26:59.024Z,23.6
2022-12-06T07:29:03.383Z,23.61
2022-12-06T07:31:07.823Z,23.62
2022-12-06T07:33:12.518Z,23.61
2022-12-06T07:35:16.903Z,23.61
2022-12-06T07:37:21.255Z,23.61
2022-12-06T07:39:25.614Z,23.6
2022-12-06T07:41:29.993Z,23.59
2022-12-06T07:43:34.347Z,23.58
2022-12-06T07:45:38.728Z,23.56
2022-12-06T07:47:43.322Z,23.54
2022-12-06T07:49:47.704Z,23.54
2022-12-06T07:51:52.082Z,23.53
2022-12-06T07:53:56.641Z,23.52
2022-12-06T07:56:00.995Z,23.51
2022-12-06T07:58:05.349Z,23.5
2022-12-06T08:00:09.698Z,23.49
2022-12-06T08:02:14.027Z,23.49
2022-12-06T08:04:18.402Z,23.49
2022-12-06T08:06:23.132Z,23.49
2022-12-06T08:08:28.980Z,23.49
2022-12-06T08:10:33.778Z,23.48
2022-12-06T08:12:38.144Z,23.47
2022-12-06T08:14:42.515Z,23.45
2022-12-06T08:16:46.884Z,23.44
2022-12-06T08:18:51.869Z,23.43
2022-12-06T08:20:56.228Z,23.43
2022-12-06T08:23:00.628Z,23.42
2022-12-06T08:25:04.983Z,23.41
2022-12-06T08:27:09.428Z,23.4
2022-12-06T08:29:13.778Z,23.4
2022-12-06T08:31:18.152Z,23.39
2022-12-06T08:33:22.891Z,23.38
2022-12-06T08:35:27.238Z,23.38
2022-12-06T08:37:31.712Z,23.38
2022-12-06T08:39:36.062Z,23.37
2022-12-06T08:41:40.440Z,23.38
2022-12-06T08:43:44.779Z,23.37
2022-12-06T08:45:49.157Z,23.36
2022-12-06T08:47:53.790Z,23.36
2022-12-06T08:49:58.418Z,23.35
2022-12-06T08:52:03.910Z,23.34
2022-12-06T08:54:08.259Z,23.35
2022-12-06T08:56:12.624Z,23.36
2022-12-06T08:58:16.989Z,23.35
2022-12-06T09:00:21.354Z,23.36
2022-12-06T09:02:25.735Z,23.36
2022-12-06T09:04:30.160Z,23.36
2022-12-06T09:06:34.778Z,23.35
2022-12-06T09:08:39.405Z,23.34
2022-12-06T09:10:43.803Z,23.34
2022-12-06T09:12:48.235Z,23.34
2022-12-06T09:14:52.596Z,23.34
2022-12-06T09:16:56.967Z,23.34
2022-12-06T09:19:01.358Z,23.34
2022-12-06T09:21:05.706Z,23.35
2022-12-06T09:23:10.191Z,23.35
2022-12-06T09:25:14.561Z,23.35
2022-12-06T09:27:18.902Z,23.35
2022-12-06T09:29:23.268Z,23.34
2022-12-06T09:31:27.703Z,23.35
2022-12-06T09:33:32.434Z,23.35
2022-12-06T09:35:36.815Z,23.34
2022-12-06T09:37:41.171Z,23.34
2022-12-06T09:39:45.567Z,23.33
2022-12-06T09:41:49.917Z,23.32
2022-12-06T09:43:54.275Z,23.32
2022-12-06T09:45:58.720Z,23.31
2022-12-06T09:48:03.374Z,23.32
2022-12-06T09:50:07.728Z,23.33
2022-12-06T09:52:12.180Z,23.33
2022-12-06T09:54:16.511Z,23.34
2022-12-06T09:56:20.929Z,23.36
2022-12-06T09:58:25.320Z,23.38
2022-12-06T10:00:29.724Z,23.4
2022-12-06T10:02:34.216Z,23.41
2022-12-06T10:04:38.922Z,23.42
2022-12-06T10:06:43.287Z,23.44
2022-12-06T10:08:47.816Z,23.45
2022-12-06T10:10:53.018Z,23.44
2022-12-06T10:12:57.423Z,23.46
2022-12-06T10:15:01.838Z,23.47
2022-12-06T10:17:09.273Z,23.48
2022-12-06T10:19:13.932Z,23.49
2022-12-06T10:21:18.665Z,23.49
2022-12-06T10:23:23.016Z,23.48
2022-12-06T10:25:27.461Z,23.46
2022-12-06T10:27:31.856Z,23.43
2022-12-06T10:29:36.224Z,23.4
2022-12-06T10:31:40.651Z,23.37
2022-12-06T10:33:45.295Z,23.36
2022-12-06T10:35:49.715Z,23.34
2022-12-06T10:37:54.136Z,23.32
2022-12-06T10:39:58.573Z,23.31
2022-12-06T10:42:02.912Z,23.29
2022-12-06T10:44:07.281Z,23.28
2022-12-06T10:46:11.616Z,23.27
2022-12-06T10:48:16.189Z,23.27
2022-12-06T10:50:20.570Z,23.26
2022-12-06T10:52:24.992Z,23.26
2022-12-06T10:54:29.399Z,23.26
2022-12-06T10:56:33.755Z,23.24
2022-12-06T10:58:38.224Z,23.24
2022-12-06T11:00:42.654Z,23.23
2022-12-06T11:02:47.165Z,23.23
2022-12-06T11:04:51.487Z,23.22
2022-12-06T11:06:55.780Z,23.21
2022-12-06T11:09:00.116Z,23.21
2022-12-06T11:11:04.383Z,23.2
2022-12-06T11:13:08.686Z,23.19
2022-12-06T11:15:13.000Z,23.19
2022-12-06T11:17:17.303Z,23.18
2022-12-06T11:19:21.636Z,23.17
2022-12-06T11:21:25.937Z,23.17
2022-12-06T11:23:30.229Z,23.17
2022-12-06T11:25:34.547Z,23.16
2022-12-06T11:27:38.893Z,23.14
2022-12-06T11:29:43.217Z,23.13
2022-12-06T11:31:47.630Z,23.12
2022-12-06T11:33:52.185Z,23.12
2022-12-06T11:35:56.520Z,23.12
2022-12-06T11:38:00.809Z,23.11
2022-12-06T11:40:05.128Z,23.1
2022-12-06T11:42:09.396Z,23.11
2022-12-06T11:44:13.708Z,23.11
2022-12-06T11:46:18.148Z,23.11
2022-12-06T11:48:22.683Z,23.12
2022-12-06T11:50:27.008Z,23.12
2022-12-06T11:52:31.311Z,23.11
2022-12-06T11:54:35.617Z,23.1
2022-12-06T11:56:39.966Z,23.1
2022-12-06T11:58:44.253Z,23.1
2022-12-06T12:00:48.599Z,23.11
2022-12-06T12:02:53.018Z,23.11
2022-12-06T12:04:57.637Z,23.11
2022-12-06T12:07:03.042Z,23.11
2022-12-06T12:09:07.307Z,23.11
2022-12-06T12:11:11.642Z,23.09
2022-12-06T12:13:15.994Z,23.08
2022-12-06T12:15:20.296Z,23.07
2022-12-06T12:17:24.656Z,23.07
2022-12-06T12:19:28.945Z,23.07
2022-12-06T12:21:33.223Z,23.06
2022-12-06T12:23:37.526Z,23.06
2022-12-06T12:25:41.814Z,23.06
2022-12-06T12:27:46.155Z,23.05
2022-12-06T12:29:50.489Z,23.06
2022-12-06T12:31:54.884Z,23.06
2022-12-06T12:33:59.644Z,23.07
2022-12-06T12:36:03.926Z,23.07
2022-12-06T12:38:08.235Z,23.07
2022-12-06T12:40:12.547Z,23.07
2022-12-06T12:42:16.867Z,23.07
2022-12-06T12:44:36.824Z,23.08
2022-12-06T12:46:43.172Z,23.07
2022-12-06T12:48:47.523Z,23.07
2022-12-06T12:50:51.862Z,23.06
2022-12-06T12:52:56.173Z,23.06
2022-12-06T12:55:01.824Z,23.05
2022-12-06T12:57:07.016Z,23.06
2022-12-06T12:59:11.336Z,23.06
2022-12-06T13:01:15.741Z,23.07
2022-12-06T13:03:49.349Z,23.08
2022-12-06T13:05:55.204Z,23.07
2022-12-06T13:07:59.572Z,23.08
2022-12-06T13:10:04.107Z,23.08
2022-12-06T13:12:08.398Z,23.08
2022-12-06T13:14:12.709Z,23.08
2022-12-06T13:16:17.062Z,23.09
2022-12-06T13:18:21.530Z,23.08
2022-12-06T13:20:25.843Z,23.08
2022-12-06T13:22:30.159Z,23.08
2022-12-06T13:24:34.538Z,23.08
2022-12-06T13:26:38.855Z,23.08
2022-12-06T13:28:43.140Z,23.07
2022-12-06T13:30:47.485Z,23.06
2022-12-06T13:32:52.028Z,23.07
2022-12-06T13:34:56.368Z,23.06
2022-12-06T13:37:01.301Z,23.07
2022-12-06T13:39:05.650Z,23.07
2022-12-06T13:41:10.020Z,23.06
2022-12-06T13:43:14.346Z,23.06
2022-12-06T13:45:18.672Z,23.05
2022-12-06T13:47:22.973Z,23.06
2022-12-06T13:49:27.347Z,23.05
2022-12-06T13:51:31.650Z,23.05
2022-12-06T13:53:36.015Z,23.05
2022-12-06T13:55:40.371Z,23.05
2022-12-06T13:57:44.787Z,23.06
2022-12-06T13:59:49.165Z,23.04
2022-12-06T14:01:53.516Z,23.05
2022-12-06T14:03:58.200Z,23.05
2022-12-06T14:06:04.154Z,23.05
2022-12-06T14:08:18.906Z,23.04
2022-12-06T14:10:23.534Z,23.04
2022-12-06T14:12:27.871Z,23.04
2022-12-06T14:14:32.246Z,23.04
2022-12-06T14:16:36.744Z,23.04
2022-12-06T14:18:41.333Z,23.02
2022-12-06T14:20:45.704Z,23.02
2022-12-06T14:22:50.329Z,23.02
2022-12-06T14:24:54.686Z,23
2022-12-06T14:26:59.119Z,22.99
2022-12-06T14:29:03.554Z,22.98
2022-12-06T14:31:08.031Z,22.99
2022-12-06T14:33:12.754Z,23.01
2022-12-06T14:35:17.143Z,23.01
2022-12-06T14:37:21.517Z,23
2022-12-06T14:39:25.892Z,23.03
2022-12-06T14:41:30.239Z,23.05
2022-12-06T14:43:34.592Z,23.06
2022-12-06T14:45:38.897Z,23.08
2022-12-06T14:47:43.273Z,23.09
2022-12-06T14:49:47.683Z,23.11
2022-12-06T14:51:52.038Z,23.13
2022-12-06T14:53:56.424Z,23.15
2022-12-06T14:56:00.734Z,23.15
2022-12-06T14:58:05.061Z,23.18
2022-12-06T15:00:15.993Z,23.2
2022-12-06T15:02:30.564Z,23.22
2022-12-06T15:04:34.993Z,23.23
2022-12-06T15:06:39.754Z,23.25
2022-12-06T15:08:44.107Z,23.26
2022-12-06T15:10:57.292Z,23.27
2022-12-06T15:13:01.634Z,23.29
2022-12-06T15:15:06.000Z,23.31
2022-12-06T15:17:10.338Z,23.33
2022-12-06T15:19:14.638Z,23.33
2022-12-06T15:21:18.997Z,23.34
2022-12-06T15:23:23.307Z,23.36
2022-12-06T15:25:27.664Z,23.38
2022-12-06T15:27:32.037Z,23.4
2022-12-06T15:29:36.364Z,23.43
2022-12-06T15:31:40.788Z,23.44
2022-12-06T15:33:45.512Z,23.48
2022-12-06T15:35:49.853Z,23.51
2022-12-06T15:37:54.209Z,23.55
2022-12-06T15:39:58.874Z,23.58
2022-12-06T15:42:04.354Z,23.62
2022-12-06T15:44:08.642Z,23.67
2022-12-06T15:46:13.013Z,23.71
2022-12-06T15:48:17.579Z,23.74
2022-12-06T15:50:21.915Z,23.79
2022-12-06T15:52:26.257Z,23.82
2022-12-06T15:54:30.569Z,23.85
2022-12-06T15:56:34.921Z,23.87
2022-12-06T15:58:39.232Z,23.91
2022-12-06T16:00:43.533Z,23.92
2022-12-06T16:02:47.862Z,23.95
2022-12-06T16:04:52.228Z,23.97
2022-12-06T16:06:56.578Z,23.98
2022-12-06T16:09:00.900Z,24
2022-12-06T16:11:12.940Z,24
2022-12-06T16:13:17.505Z,24.01
2022-12-06T16:15:21.850Z,24.01
2022-12-06T16:17:26.170Z,24.03
2022-12-06T16:19:30.499Z,24.03
2022-12-06T16:21:34.824Z,24.03
2022-12-06T16:24:11.173Z,24.04
2022-12-06T16:26:17.841Z,24.13
2022-12-06T16:28:22.141Z,24.19
2022-12-06T16:30:26.475Z,24.22
2022-12-06T16:32:30.790Z,24.24
2022-12-06T16:34:35.160Z,24.25
2022-12-06T16:36:39.515Z,24.24
2022-12-06T16:38:43.852Z,24.21
2022-12-06T16:40:48.566Z,24.21
2022-12-06T16:42:52.878Z,24.2
2022-12-06T16:44:57.223Z,24.19
2022-12-06T16:47:02.829Z,24.19
2022-12-06T16:49:37.108Z,24.18
2022-12-06T16:51:52.009Z,24.19
2022-12-06T16:53:56.354Z,24.2
2022-12-06T16:56:00.688Z,24.2
2022-12-06T16:58:05.013Z,24.21
2022-12-06T17:00:09.415Z,24.22
2022-12-06T17:02:13.813Z,24.22
2022-12-06T17:04:18.245Z,24.23
2022-12-06T17:06:22.626Z,24.24
2022-12-06T17:08:27.281Z,24.26
2022-12-06T17:10:31.833Z,24.26
2022-12-06T17:12:36.207Z,24.27
2022-12-06T17:14:40.523Z,24.27
2022-12-06T17:16:44.895Z,24.28
2022-12-06T17:18:49.577Z,24.3
2022-12-06T17:20:54.492Z,24.3
2022-12-06T17:22:58.863Z,24.3
2022-12-06T17:25:03.701Z,24.31
2022-12-06T17:27:08.325Z,24.33
2022-12-06T17:29:12.773Z,24.35
2022-12-06T17:31:17.123Z,24.35
2022-12-06T17:33:21.664Z,24.35
2022-12-06T17:35:26.010Z,24.35
2022-12-06T17:37:30.365Z,24.35
2022-12-06T17:39:34.674Z,24.36
2022-12-06T17:41:39.020Z,24.36
2022-12-06T17:43:43.425Z,24.36
2022-12-06T17:45:47.918Z,24.36
2022-12-06T17:47:52.563Z,24.36
2022-12-06T17:49:56.879Z,24.38
2022-12-06T17:52:01.717Z,24.39
2022-12-06T17:54:09.169Z,24.39
2022-12-06T17:56:13.865Z,24.39
2022-12-06T17:58:18.219Z,24.39
2022-12-06T18:00:22.560Z,24.39
2022-12-06T18:02:27.027Z,24.38
2022-12-06T18:04:32.194Z,24.38
2022-12-06T18:06:36.559Z,24.38
2022-12-06T18:08:40.876Z,24.37
2022-12-06T18:10:45.259Z,24.37
2022-12-06T18:12:49.625Z,24.38
2022-12-06T18:14:53.924Z,24.4
2022-12-06T18:16:58.405Z,24.41
2022-12-06T18:19:07.246Z,24.42
2022-12-06T18:21:12.857Z,24.42
2022-12-06T18:23:17.189Z,24.42
2022-12-06T18:25:21.692Z,24.42
2022-12-06T18:27:26.234Z,24.44
2022-12-06T18:29:30.597Z,24.45
2022-12-06T18:31:35.024Z,24.46
2022-12-06T18:33:39.636Z,24.48
2022-12-06T18:35:44.123Z,24.49
2022-12-06T18:37:48.598Z,24.49
2022-12-06T18:39:53.127Z,24.51
2022-12-06T18:41:57.582Z,24.51
2022-12-06T18:44:02.006Z,24.52
2022-12-06T18:46:06.460Z,24.52
2022-12-06T18:48:11.087Z,24.51
2022-12-06T18:50:15.936Z,24.51
2022-12-06T18:52:20.238Z,24.51
2022-12-06T18:54:24.682Z,24.51
2022-12-06T18:56:29.051Z,24.35
2022-12-06T18:58:33.517Z,24.1
2022-12-06T19:00:37.976Z,23.86
2022-12-06T19:02:42.382Z,23.67
2022-12-06T19:04:46.936Z,23.45
2022-12-06T19:06:51.381Z,23.3
2022-12-06T19:08:55.795Z,23.16
2022-12-06T19:11:00.241Z,23
2022-12-06T19:13:06.049Z,22.92
2022-12-06T19:15:10.589Z,22.87
2022-12-06T19:17:15.013Z,22.78
2022-12-06T19:19:19.363Z,22.71
2022-12-06T19:21:23.804Z,22.64
2022-12-06T19:23:28.218Z,22.56
2022-12-06T19:25:32.592Z,22.5
2022-12-06T19:27:36.998Z,22.44
2022-12-06T19:29:41.436Z,22.42
2022-12-06T19:31:45.778Z,22.37
2022-12-06T19:33:50.154Z,22.36
2022-12-06T19:35:54.530Z,22.46
2022-12-06T19:37:58.904Z,22.53
2022-12-06T19:40:03.462Z,22.57
2022-12-06T19:42:07.983Z,22.59
2022-12-06T19:44:12.323Z,22.58
2022-12-06T19:46:16.703Z,22.5
2022-12-06T19:48:21.320Z,22.39
2022-12-06T19:50:25.638Z,22.25
2022-12-06T19:52:31.069Z,22.16
2022-12-06T19:54:35.523Z,22.05
2022-12-06T19:56:39.863Z,22.02
2022-12-06T19:58:44.249Z,22.01
2022-12-06T20:00:48.585Z,22.09
2022-12-06T20:02:53.093Z,22.24
2022-12-06T20:04:57.955Z,22.38
2022-12-06T20:07:02.366Z,22.51
2022-12-06T20:09:06.791Z,22.65
2022-12-06T20:11:11.244Z,22.75
2022-12-06T20:13:15.657Z,22.86
2022-12-06T20:15:20.501Z,22.95
2022-12-06T20:17:24.914Z,23.01
2022-12-06T20:19:29.425Z,23.1
2022-12-06T20:21:33.736Z,23.17
2022-12-06T20:23:38.103Z,23.23
2022-12-06T20:25:42.488Z,23.28
2022-12-06T20:27:46.933Z,23.32
2022-12-06T20:29:51.340Z,23.35
2022-12-06T20:31:55.781Z,23.41
2022-12-06T20:34:00.224Z,23.47
2022-12-06T20:36:04.723Z,23.51
2022-12-06T20:38:09.310Z,23.54
2022-12-06T20:40:13.809Z,23.56
2022-12-06T20:42:18.270Z,23.59
2022-12-06T20:44:22.695Z,23.61
2022-12-06T20:46:27.337Z,23.64
2022-12-06T20:48:32.329Z,23.66
2022-12-06T20:50:36.833Z,23.69
2022-12-06T20:52:41.199Z,23.71
2022-12-06T20:54:45.666Z,23.72
2022-12-06T20:56:50.072Z,23.74
2022-12-06T20:58:54.715Z,23.76
2022-12-06T21:00:59.124Z,23.78
2022-12-06T21:03:03.677Z,23.8
2022-12-06T21:05:08.285Z,23.81
2022-12-06T21:07:12.703Z,23.81
2022-12-06T21:09:17.058Z,23.84
2022-12-06T21:11:22.921Z,23.86
2022-12-06T21:13:28.082Z,23.88
2022-12-06T21:15:32.531Z,23.9
2022-12-06T21:17:37.079Z,23.91
2022-12-06T21:19:41.459Z,23.92
2022-12-06T21:21:45.919Z,23.93
2022-12-06T21:23:50.325Z,23.94
2022-12-06T21:25:54.689Z,23.94
2022-12-06T21:27:59.034Z,23.93
2022-12-06T21:30:03.797Z,23.93
2022-12-06T21:32:08.284Z,23.93
2022-12-06T21:34:12.617Z,23.92
2022-12-06T21:36:16.971Z,23.93
2022-12-06T21:38:21.293Z,23.93
2022-12-06T21:40:25.630Z,23.94
2022-12-06T21:42:29.910Z,23.96
2022-12-06T21:44:34.222Z,23.98
2022-12-06T21:46:38.676Z,24
2022-12-06T21:48:43.555Z,24.01
2022-12-06T21:50:47.930Z,24.01
2022-12-06T21:52:52.295Z,24.02
2022-12-06T21:54:56.614Z,24.02
2022-12-06T21:57:00.974Z,24.03
2022-12-06T21:59:05.315Z,24.03
2022-12-06T22:01:09.690Z,24.03
2022-12-06T22:03:17.740Z,24.03
2022-12-06T22:05:26.937Z,24.05
2022-12-06T22:07:31.430Z,24.05
2022-12-06T22:09:35.893Z,24.06
2022-12-06T22:11:40.672Z,24.07
2022-12-06T22:13:44.997Z,24.08
2022-12-06T22:15:49.649Z,24.08
2022-12-06T22:17:54.216Z,24.08
2022-12-06T22:19:58.864Z,24.09
2022-12-06T22:22:04.504Z,24.1
2022-12-06T22:24:08.858Z,24.1
2022-12-06T22:26:13.187Z,24.11
2022-12-06T22:28:17.505Z,24.1
2022-12-06T22:30:21.823Z,24.1
2022-12-06T22:32:26.138Z,24.09
2022-12-06T22:34:30.453Z,24.09
2022-12-06T22:36:34.780Z,24.08
2022-12-06T22:38:39.081Z,24.07
2022-12-06T22:40:43.455Z,24.05
2022-12-06T22:42:47.772Z,24.03
2022-12-06T22:44:52.044Z,24.03
2022-12-06T22:46:56.458Z,24.02
2022-12-06T22:49:00.997Z,24.02
2022-12-06T22:51:05.343Z,24.01
2022-12-06T22:53:09.667Z,24
2022-12-06T22:55:14.022Z,23.98
2022-12-06T22:57:18.369Z,23.97
2022-12-06T22:59:22.660Z,23.95
2022-12-06T23:01:26.975Z,23.95
2022-12-06T23:03:31.296Z,23.93
2022-12-06T23:05:35.821Z,23.92
2022-12-06T23:07:40.205Z,23.91
2022-12-06T23:09:44.862Z,23.9
2022-12-06T23:11:49.227Z,23.88
2022-12-06T23:13:53.573Z,23.86
2022-12-06T23:15:57.926Z,23.84
2022-12-06T23:18:02.472Z,23.82
2022-12-06T23:20:06.784Z,23.82
2022-12-06T23:22:11.074Z,23.81
2022-12-06T23:24:15.403Z,23.81
2022-12-06T23:26:19.709Z,23.79
2022-12-06T23:28:24.036Z,23.79
2022-12-06T23:30:28.457Z,23.79
2022-12-06T23:32:32.839Z,23.78
2022-12-06T23:34:37.109Z,23.78
2022-12-06T23:36:41.451Z,23.78
2022-12-06T23:38:45.739Z,23.77
2022-12-06T23:40:50.079Z,23.77
2022-12-06T23:42:54.389Z,23.76
2022-12-06T23:44:58.696Z,23.75
2022-12-06T23:47:03.024Z,23.75
2022-12-06T23:49:07.340Z,23.75
2022-12-06T23:51:11.637Z,23.74
2022-12-06T23:53:15.963Z,23.74
2022-12-06T23:55:20.251Z,23.74
2022-12-06T23:57:24.530Z,23.74
2022-12-06T23:59:28.820Z,23.74
